createdAt,value
2022-08-12T00:00:27.547Z,7.70
2022-08-12T00:06:08.608Z,9.80
2022-08-12T00:11:29.513Z,8.60
2022-08-12T00:16:56.656Z,9.30
2022-08-12T00:22:19.402Z,10.10
2022-08-12T00:27:43.443Z,10.60
2022-08-12T00:33:06.899Z,11.10
2022-08-12T00:38:27.641Z,9.00
2022-08-12T00:43:29.911Z,8.70
2022-08-12T00:48:32.307Z,10.10
2022-08-12T00:53:36.714Z,7.00
2022-08-12T00:58:46.329Z,9.70
2022-08-12T01:04:08.556Z,10.20
2022-08-12T01:09:34.793Z,10.10
2022-08-12T01:14:38.419Z,11.20
2022-08-12T01:19:40.850Z,10.60
2022-08-12T01:25:04.050Z,10.70
2022-08-12T01:30:09.348Z,11.50
2022-08-12T01:35:14.263Z,17.10
2022-08-12T01:40:36.149Z,13.90
2022-08-12T01:46:22.696Z,11.70
2022-08-12T01:52:19.946Z,11.90
2022-08-12T01:57:13.619Z,11.20
2022-08-12T02:03:02.109Z,13.00
2022-08-12T02:09:00.275Z,12.30
2022-08-12T02:14:28.583Z,12.30
2022-08-12T02:20:07.822Z,11.80
2022-08-12T02:25:12.333Z,12.40
2022-08-12T02:30:19.549Z,12.80
2022-08-12T02:35:24.652Z,13.40
2022-08-12T02:40:28.790Z,14.40
2022-08-12T02:45:45.609Z,13.80
2022-08-12T02:50:52.648Z,13.40
2022-08-12T02:55:54.986Z,14.00
2022-08-12T03:00:57.972Z,14.60
2022-08-12T03:06:03.533Z,13.10
2022-08-12T03:11:42.653Z,12.40
2022-08-12T03:17:14.150Z,12.70
2022-08-12T03:22:18.853Z,14.00
2022-08-12T03:27:20.812Z,12.70
2022-08-12T03:32:35.172Z,10.70
2022-08-12T03:38:12.609Z,13.80
2022-08-12T03:43:52.892Z,12.90
2022-08-12T03:49:19.644Z,12.60
2022-08-12T03:54:42.584Z,11.80
2022-08-12T04:00:03.451Z,11.10
2022-08-12T04:05:11.150Z,9.80
2022-08-12T04:10:14.467Z,8.70
2022-08-12T04:15:19.697Z,8.70
2022-08-12T04:20:22.947Z,8.40
2022-08-12T04:25:27.157Z,8.60
2022-08-12T04:30:33.587Z,8.30
2022-08-12T04:35:36.045Z,7.30
2022-08-12T04:40:38.706Z,6.50
2022-08-12T04:45:41.254Z,6.80
2022-08-12T04:50:45.529Z,7.00
2022-08-12T04:55:48.514Z,6.70
2022-08-12T05:01:04.516Z,7.60
2022-08-12T05:06:26.700Z,7.20
2022-08-12T05:11:29.602Z,8.10
2022-08-12T05:16:46.514Z,7.60
2022-08-12T05:21:48.740Z,8.10
2022-08-12T05:26:52.077Z,8.60
2022-08-12T05:31:57.019Z,8.70
2022-08-12T05:36:59.675Z,8.80
2022-08-12T05:42:01.745Z,8.20
2022-08-12T05:47:04.538Z,9.20
2022-08-12T05:52:07.092Z,11.70
2022-08-12T05:57:09.123Z,14.70
2022-08-12T06:02:13.710Z,10.40
2022-08-12T06:07:42.833Z,10.70
2022-08-12T06:12:37.964Z,9.40
2022-08-12T06:17:39.861Z,8.20
2022-08-12T06:22:45.447Z,9.50
2022-08-12T06:28:08.629Z,8.80
2022-08-12T06:33:24.826Z,7.90
2022-08-12T06:38:29.145Z,7.80
2022-08-12T06:44:04.679Z,7.70
2022-08-12T06:48:59.344Z,9.50
2022-08-12T06:54:01.913Z,8.70
2022-08-12T06:59:04.564Z,7.90
2022-08-12T07:04:33.671Z,8.20
2022-08-12T07:10:05.153Z,7.30
2022-08-12T07:14:51.706Z,8.10
2022-08-12T07:19:58.012Z,7.80
2022-08-12T07:25:21.056Z,7.30
2022-08-12T07:30:24.200Z,5.90
2022-08-12T07:35:27.679Z,7.30
2022-08-12T07:40:30.332Z,6.90
2022-08-12T07:45:32.448Z,6.30
2022-08-12T07:50:34.453Z,6.30
2022-08-12T07:55:36.782Z,6.30
2022-08-12T08:00:42.623Z,5.90
2022-08-12T08:05:46.574Z,6.80
2022-08-12T08:10:50.841Z,6.30
2022-08-12T08:16:03.403Z,5.20
2022-08-12T08:21:06.168Z,5.60
2022-08-12T08:26:10.529Z,5.90
2022-08-12T08:31:14.474Z,6.10
2022-08-12T08:36:23.881Z,5.60
2022-08-12T08:42:19.272Z,5.70
2022-08-12T08:47:13.087Z,6.20
2022-08-12T08:52:39.358Z,7.10
2022-08-12T08:57:43.741Z,5.70
2022-08-12T09:02:49.364Z,4.80
2022-08-12T09:08:13.076Z,4.40
2022-08-12T09:14:12.960Z,4.30
2022-08-12T09:19:01.839Z,3.30
2022-08-12T09:24:05.955Z,3.30
2022-08-12T09:30:11.804Z,3.50
2022-08-12T09:34:50.851Z,3.30
2022-08-12T09:40:05.579Z,3.70
2022-08-12T09:46:06.382Z,3.10
2022-08-12T09:51:02.110Z,3.90
2022-08-12T09:56:56.607Z,2.80
2022-08-12T10:01:35.204Z,3.20
2022-08-12T10:06:55.355Z,3.00
2022-08-12T10:12:25.495Z,2.80
2022-08-12T10:17:34.888Z,3.30
2022-08-12T10:23:12.727Z,2.50
2022-08-12T10:29:02.614Z,2.70
2022-08-12T10:34:26.255Z,3.30
2022-08-12T10:40:01.132Z,2.80
2022-08-12T10:45:05.136Z,3.20
2022-08-12T10:50:35.351Z,2.70
2022-08-12T10:55:56.264Z,2.70
2022-08-12T11:01:49.238Z,2.40
2022-08-12T11:07:02.495Z,3.20
2022-08-12T11:12:36.066Z,2.90
2022-08-12T11:17:44.088Z,2.90
2022-08-12T11:22:35.354Z,2.80
2022-08-12T11:27:51.341Z,2.50
2022-08-12T11:33:12.106Z,2.50
2022-08-12T11:38:14.410Z,3.20
2022-08-12T11:43:22.464Z,2.70
2022-08-12T11:48:27.037Z,2.80
2022-08-12T11:53:59.035Z,2.40
2022-08-12T12:04:28.967Z,2.60
2022-08-12T12:09:31.475Z,2.60
2022-08-12T12:14:54.765Z,3.00
2022-08-12T12:19:57.726Z,2.40
2022-08-12T12:25:19.779Z,2.80
2022-08-12T12:30:36.047Z,3.10
2022-08-12T12:36:06.504Z,3.10
2022-08-12T12:41:16.714Z,2.40
2022-08-12T12:46:19.143Z,2.70
2022-08-12T12:51:48.360Z,2.60
2022-08-12T12:56:47.957Z,2.50
2022-08-12T13:02:14.646Z,3.00
2022-08-12T13:08:01.113Z,3.00
2022-08-12T13:14:06.760Z,2.70
2022-08-12T13:18:49.618Z,3.00
2022-08-12T13:23:57.585Z,2.90
2022-08-12T13:29:00.557Z,3.00
2022-08-12T13:34:31.879Z,2.80
2022-08-12T13:39:32.892Z,2.40
2022-08-12T13:44:43.080Z,2.80
2022-08-12T13:49:59.826Z,2.50
2022-08-12T13:55:06.152Z,3.00
2022-08-12T14:00:11.100Z,2.80
2022-08-12T14:05:37.564Z,2.60
2022-08-12T14:10:50.876Z,2.80
2022-08-12T14:15:59.532Z,2.40
2022-08-12T14:21:10.135Z,2.80
2022-08-12T14:26:25.222Z,2.60
2022-08-12T14:31:32.075Z,2.60
2022-08-12T14:36:34.343Z,2.60
2022-08-12T14:41:48.680Z,2.30
2022-08-12T14:47:13.782Z,2.30
2022-08-12T14:53:23.997Z,2.30
2022-08-12T14:58:01.025Z,2.50
2022-08-12T15:03:03.861Z,2.60
2022-08-12T15:08:13.692Z,2.40
2022-08-12T15:13:20.423Z,2.90
2022-08-12T15:18:25.049Z,2.80
2022-08-12T15:23:33.240Z,3.20
2022-08-12T15:28:55.087Z,2.80
2022-08-12T15:33:57.179Z,2.50
2022-08-12T15:38:59.999Z,3.20
2022-08-12T15:44:37.152Z,2.80
2022-08-12T15:49:23.729Z,2.90
2022-08-12T15:54:33.400Z,3.30
2022-08-12T16:00:00.070Z,2.80
2022-08-12T16:05:18.805Z,3.20
2022-08-12T16:10:39.702Z,3.00
2022-08-12T16:16:01.470Z,3.00
2022-08-12T16:21:06.549Z,2.60
2022-08-12T16:26:15.218Z,3.60
2022-08-12T16:31:24.019Z,2.90
2022-08-12T16:36:26.576Z,3.30
2022-08-12T16:41:38.139Z,3.20
2022-08-12T16:46:57.959Z,3.20
2022-08-12T16:52:00.753Z,3.40
2022-08-12T16:57:05.608Z,3.40
2022-08-12T17:02:18.019Z,3.10
2022-08-12T17:07:43.570Z,3.10
2022-08-12T17:12:46.740Z,3.50
2022-08-12T17:17:50.512Z,3.50
2022-08-12T17:23:15.101Z,3.90
2022-08-12T17:28:21.366Z,4.00
2022-08-12T17:33:25.123Z,4.20
2022-08-12T17:38:28.877Z,4.30
2022-08-12T17:43:54.709Z,4.60
2022-08-12T17:48:57.915Z,4.60
2022-08-12T17:54:10.315Z,4.60
2022-08-12T17:59:47.193Z,4.60
2022-08-12T18:05:05.237Z,4.30
2022-08-12T18:10:13.448Z,4.30
2022-08-12T18:15:26.162Z,4.70
2022-08-12T18:20:32.858Z,5.10
2022-08-12T18:26:16.320Z,4.50
2022-08-12T18:31:23.773Z,4.50
2022-08-12T18:36:27.316Z,4.70
2022-08-12T18:41:33.657Z,4.90
2022-08-12T18:47:14.701Z,4.70
2022-08-12T18:52:32.161Z,5.30
2022-08-12T18:57:46.062Z,5.50
2022-08-12T19:03:38.585Z,5.70
2022-08-12T19:08:55.692Z,6.70
2022-08-12T19:14:23.926Z,7.10
2022-08-12T19:19:49.719Z,7.10
2022-08-12T19:25:18.387Z,8.50
2022-08-12T19:30:48.119Z,7.30
2022-08-12T19:36:24.242Z,7.50
2022-08-12T19:41:42.474Z,7.70
2022-08-12T19:46:51.969Z,9.80
2022-08-12T19:51:55.623Z,8.90
2022-08-12T19:56:58.625Z,9.50
2022-08-12T20:02:05.116Z,9.60
2022-08-12T20:07:23.695Z,10.60
2022-08-12T20:13:17.620Z,12.30
2022-08-12T20:18:44.249Z,11.40
2022-08-12T20:23:59.899Z,11.80
2022-08-12T20:29:05.157Z,12.30
2022-08-12T20:34:07.778Z,14.20
2022-08-12T20:39:17.477Z,14.00
2022-08-12T20:44:36.117Z,14.20
2022-08-12T20:49:43.918Z,14.30
2022-08-12T20:54:52.713Z,13.60
2022-08-12T20:59:54.829Z,14.40
2022-08-12T21:05:20.341Z,13.80
2022-08-12T21:10:26.572Z,13.60
2022-08-12T21:15:30.599Z,12.90
2022-08-12T21:20:53.208Z,11.10
2022-08-12T21:26:01.258Z,11.10
2022-08-12T21:32:34.658Z,11.00
2022-08-12T21:36:34.253Z,11.70
2022-08-12T21:41:38.139Z,12.80
2022-08-12T21:46:53.568Z,12.30
2022-08-12T21:51:56.621Z,11.70
2022-08-12T21:56:59.330Z,11.90
2022-08-12T22:02:01.217Z,12.10
2022-08-12T22:07:07.148Z,12.80
2022-08-12T22:12:29.732Z,13.80
2022-08-12T22:17:50.527Z,13.10
2022-08-12T22:22:59.610Z,15.10
2022-08-12T22:28:24.531Z,13.30
2022-08-12T22:33:26.791Z,13.10
2022-08-12T22:38:29.926Z,14.40
2022-08-12T22:44:00.522Z,14.80
2022-08-12T22:49:06.752Z,15.40
